Time;durP1;ratioP1;P1;durP2;ratioP2;P2;SDS_P1;SDS_P2;PMS_P1;PMS_P2;Temp;Humidity;BMP_temperature;BMP_pressure;BME280_temperature;BME280_humidity;BME280_pressure;Samples;Min_cycle;Max_cycle;Signal;HPM_P1;HPM_P2
2021/07/17 00:01:22;;;;;;;;;13.67;13.67;;;;;;;;5012121;28;46616;-76
2021/07/17 00:03:48;;;;;;;;;15.75;13.00;;;;;;;;4986025;28;45368;-76
2021/07/17 00:06:13;;;;;;;;;17.00;13.00;;;;;;;;5011913;28;45480;-76
2021/07/17 00:08:38;;;;;;;;;13.00;11.75;;;;;;;;5007058;28;45432;-76
2021/07/17 00:11:06;;;;;;;;;15.00;9.75;;;;;;;;5015058;28;46293;-76
2021/07/17 00:13:32;;;;;;;;;16.50;12.50;;;;;;;;4992032;28;45432;-76
2021/07/17 00:15:57;;;;;;;;;13.33;10.33;;;;;;;;5007214;28;45406;-76
2021/07/17 00:18:23;;;;;;;;;15.50;12.50;;;;;;;;5018135;28;45340;-76
2021/07/17 00:20:48;;;;;;;;;12.50;11.00;;;;;;;;4993461;28;48409;-76
2021/07/17 00:23:14;;;;;;;;;14.00;11.25;;;;;;;;5005975;28;46464;-77
2021/07/17 00:25:39;;;;;;;;;13.00;10.50;;;;;;;;5010635;28;45423;-76
2021/07/17 00:28:04;;;;;;;;;18.25;13.75;;;;;;;;5006648;28;45538;-76
2021/07/17 00:30:30;;;;;;;;;14.25;12.25;;;;;;;;5011724;28;46865;-76
2021/07/17 00:32:55;;;;;;;;;15.67;13.00;;;;;;;;5016550;28;45459;-77
2021/07/17 00:35:20;;;;;;;;;16.33;14.00;;;;;;;;5017830;28;45785;-76
2021/07/17 00:37:45;;;;;;;;;11.00;11.00;;;;;;;;5018549;28;45464;-76
2021/07/17 00:40:12;;;;;;;;;13.00;12.33;;;;;;;;5009372;28;45387;-76
2021/07/17 00:42:39;;;;;;;;;13.50;12.50;;;;;;;;5015144;28;45262;-77
2021/07/17 00:45:04;;;;;;;;;13.75;12.25;;;;;;;;5017695;28;45774;-76
2021/07/17 00:47:30;;;;;;;;;15.00;13.00;;;;;;;;5017556;28;45522;-76
2021/07/17 00:49:56;;;;;;;;;16.00;12.50;;;;;;;;5010582;28;45435;-76
2021/07/17 00:52:21;;;;;;;;;17.33;11.67;;;;;;;;5009305;28;45548;-76
2021/07/17 00:54:47;;;;;;;;;13.00;12.00;;;;;;;;5010681;28;45538;-76
2021/07/17 00:57:12;;;;;;;;;14.25;13.25;;;;;;;;5014063;28;45562;-76
2021/07/17 00:59:41;;;;;;;;;14.00;10.00;;;;;;;;5025676;28;46414;-76
2021/07/17 01:02:08;;;;;;;;;15.00;13.00;;;;;;;;5008096;28;45677;-77
2021/07/17 01:04:34;;;;;;;;;14.25;12.75;;;;;;;;4997704;28;45489;-76
2021/07/17 01:06:59;;;;;;;;;12.75;10.25;;;;;;;;4997689;28;45767;-76
2021/07/17 01:09:25;;;;;;;;;16.25;13.25;;;;;;;;5006430;28;45429;-76
2021/07/17 01:11:51;;;;;;;;;17.25;13.00;;;;;;;;5011030;28;45518;-76
2021/07/17 01:14:16;;;;;;;;;15.25;13.50;;;;;;;;5009874;28;45464;-76
2021/07/17 01:16:41;;;;;;;;;15.75;13.00;;;;;;;;5022584;28;45610;-76
2021/07/17 01:19:09;;;;;;;;;14.00;13.00;;;;;;;;5005595;28;46192;-76
2021/07/17 01:21:34;;;;;;;;;16.25;13.00;;;;;;;;5010341;28;45612;-76
2021/07/17 01:24:00;;;;;;;;;17.00;13.33;;;;;;;;5012119;28;45302;-76
2021/07/17 01:26:25;;;;;;;;;13.75;13.75;;;;;;;;5009392;28;45461;-76
2021/07/17 01:28:50;;;;;;;;;14.33;11.00;;;;;;;;5010086;28;46325;-76
2021/07/17 01:31:15;;;;;;;;;15.33;13.00;;;;;;;;5011318;28;45912;-76
2021/07/17 01:33:41;;;;;;;;;16.00;11.67;;;;;;;;4996509;28;45568;-76
2021/07/17 01:36:06;;;;;;;;;14.75;11.75;;;;;;;;5015981;28;45400;-76
2021/07/17 01:38:31;;;;;;;;;18.25;13.00;;;;;;;;5009326;28;48726;-76
2021/07/17 01:40:56;;;;;;;;;14.00;11.67;;;;;;;;5001628;28;45762;-76
2021/07/17 01:43:22;;;;;;;;;13.50;11.00;;;;;;;;5004725;28;45591;-76
2021/07/17 01:45:47;;;;;;;;;14.00;11.67;;;;;;;;5002489;28;45502;-76
2021/07/17 01:48:13;;;;;;;;;15.33;12.67;;;;;;;;5012686;28;46406;-76
2021/07/17 01:50:39;;;;;;;;;15.00;13.25;;;;;;;;5006341;28;45406;-76
2021/07/17 01:53:05;;;;;;;;;14.25;12.50;;;;;;;;5014744;28;45499;-76
2021/07/17 01:55:31;;;;;;;;;13.50;10.00;;;;;;;;5008287;28;45946;-77
2021/07/17 01:57:57;;;;;;;;;12.75;11.75;;;;;;;;5005889;28;45511;-76
2021/07/17 02:00:22;;;;;;;;;14.25;11.00;;;;;;;;4997093;28;46167;-76
2021/07/17 02:02:47;;;;;;;;;14.75;12.00;;;;;;;;5009134;28;45940;-76
2021/07/17 02:05:13;;;;;;;;;14.75;11.50;;;;;;;;5009612;28;45380;-76
2021/07/17 02:07:39;;;;;;;;;15.25;11.75;;;;;;;;5008902;28;46673;-76
2021/07/17 02:10:06;;;;;;;;;19.00;13.25;;;;;;;;4996900;28;45420;-76
2021/07/17 02:12:31;;;;;;;;;15.50;15.00;;;;;;;;4988133;28;45531;-76
2021/07/17 02:14:57;;;;;;;;;13.75;12.50;;;;;;;;5007672;28;45285;-76
2021/07/17 02:17:22;;;;;;;;;15.67;14.67;;;;;;;;5014194;28;45642;-76
2021/07/17 02:19:47;;;;;;;;;13.67;13.67;;;;;;;;4987585;28;45459;-76
2021/07/17 02:22:12;;;;;;;;;14.67;12.33;;;;;;;;5007972;28;45594;-76
2021/07/17 02:24:37;;;;;;;;;20.67;12.00;;;;;;;;4992638;28;45759;-76
2021/07/17 02:27:03;;;;;;;;;18.00;13.67;;;;;;;;5011676;28;45360;-76
2021/07/17 02:29:28;;;;;;;;;13.75;11.75;;;;;;;;5008714;28;45432;-76
2021/07/17 02:31:53;;;;;;;;;12.67;10.00;;;;;;;;5006425;28;45399;-76
2021/07/17 02:34:19;;;;;;;;;13.75;12.75;;;;;;;;4992523;28;45274;-76
2021/07/17 02:36:44;;;;;;;;;19.33;17.33;;;;;;;;5004958;28;45587;-76
2021/07/17 02:39:10;;;;;;;;;18.67;13.00;;;;;;;;4982452;28;45595;-76
2021/07/17 02:41:35;;;;;;;;;17.75;13.50;;;;;;;;5004146;28;45543;-76
2021/07/17 02:44:01;;;;;;;;;15.00;12.50;;;;;;;;4998108;28;45756;-76
2021/07/17 02:46:26;;;;;;;;;13.75;13.25;;;;;;;;5007763;28;46200;-76
2021/07/17 02:48:51;;;;;;;;;18.00;13.75;;;;;;;;5008246;28;45498;-76
2021/07/17 02:51:16;;;;;;;;;14.67;13.00;;;;;;;;5009388;28;45788;-76
2021/07/17 02:53:42;;;;;;;;;12.00;12.00;;;;;;;;5008367;28;45512;-76
2021/07/17 02:56:07;;;;;;;;;13.00;12.75;;;;;;;;5008476;28;46318;-76
2021/07/17 02:58:32;;;;;;;;;17.00;12.67;;;;;;;;4993267;28;45385;-76
2021/07/17 03:00:57;;;;;;;;;14.33;12.67;;;;;;;;5003325;28;45821;-76
2021/07/17 03:03:23;;;;;;;;;22.00;13.67;;;;;;;;4986380;28;45685;-76
2021/07/17 03:05:49;;;;;;;;;16.50;13.75;;;;;;;;5009030;28;45496;-76
2021/07/17 03:08:16;;;;;;;;;17.50;13.00;;;;;;;;5007381;28;45281;-76
2021/07/17 03:10:41;;;;;;;;;16.25;14.25;;;;;;;;5012951;28;45534;-76
2021/07/17 03:13:06;;;;;;;;;15.25;13.25;;;;;;;;4999525;28;45499;-76
2021/07/17 03:15:32;;;;;;;;;17.67;15.33;;;;;;;;4995544;28;47033;-76
2021/07/17 03:17:57;;;;;;;;;17.25;13.50;;;;;;;;5024448;28;45287;-76
2021/07/17 03:20:22;;;;;;;;;19.67;14.33;;;;;;;;5011085;28;45546;-76
2021/07/17 03:22:47;;;;;;;;;20.75;15.75;;;;;;;;5006984;28;45336;-76
2021/07/17 03:25:13;;;;;;;;;21.67;16.67;;;;;;;;5008286;28;45786;-77
2021/07/17 03:27:38;;;;;;;;;15.00;13.75;;;;;;;;4998752;28;46458;-76
2021/07/17 03:30:06;;;;;;;;;18.00;13.33;;;;;;;;5005083;28;45365;-76
2021/07/17 03:32:32;;;;;;;;;14.50;13.25;;;;;;;;5011128;28;45506;-76
2021/07/17 03:34:57;;;;;;;;;14.25;14.00;;;;;;;;5012465;28;47178;-76
2021/07/17 03:37:23;;;;;;;;;21.67;17.00;;;;;;;;5010345;28;45411;-76
2021/07/17 03:39:48;;;;;;;;;17.75;14.75;;;;;;;;5007918;28;45585;-76
2021/07/17 03:42:14;;;;;;;;;17.75;16.00;;;;;;;;4994544;28;45341;-76
2021/07/17 03:44:39;;;;;;;;;18.50;14.00;;;;;;;;4998610;28;46778;-76
2021/07/17 03:47:04;;;;;;;;;17.67;14.00;;;;;;;;5008260;28;45328;-76
2021/07/17 03:49:31;;;;;;;;;17.50;14.50;;;;;;;;5007235;28;45373;-76
2021/07/17 03:51:56;;;;;;;;;15.50;14.75;;;;;;;;4986149;28;45508;-76
2021/07/17 03:54:21;;;;;;;;;15.75;13.50;;;;;;;;5005308;28;46624;-76
2021/07/17 03:56:46;;;;;;;;;19.00;16.67;;;;;;;;5007230;28;48534;-76
2021/07/17 03:59:12;;;;;;;;;23.67;15.00;;;;;;;;5009494;28;45581;-76
2021/07/17 04:01:37;;;;;;;;;19.33;13.33;;;;;;;;4997464;28;45567;-76
2021/07/17 04:04:03;;;;;;;;;18.75;16.25;;;;;;;;4976608;28;47234;-76
2021/07/17 04:06:29;;;;;;;;;21.50;17.00;;;;;;;;5003021;28;45450;-76
2021/07/17 04:08:54;;;;;;;;;20.33;16.67;;;;;;;;5008623;28;45510;-76
2021/07/17 04:11:19;;;;;;;;;21.00;14.00;;;;;;;;5005709;28;45453;-76
2021/07/17 04:13:44;;;;;;;;;16.33;14.67;;;;;;;;5005353;28;46542;-76
2021/07/17 04:16:09;;;;;;;;;20.00;14.00;;;;;;;;4996735;28;45780;-76
2021/07/17 04:18:35;;;;;;;;;16.67;12.67;;;;;;;;5006711;28;45502;-76
2021/07/17 04:21:00;;;;;;;;;22.75;18.00;;;;;;;;4997407;28;45685;-76
2021/07/17 04:23:26;;;;;;;;;20.33;14.67;;;;;;;;5006873;28;46193;-76
2021/07/17 04:25:52;;;;;;;;;20.00;14.50;;;;;;;;5006405;28;45643;-76
2021/07/17 04:28:17;;;;;;;;;17.00;15.00;;;;;;;;5006550;28;45445;-76
2021/07/17 04:30:42;;;;;;;;;19.00;14.75;;;;;;;;5008186;28;46167;-76
2021/07/17 04:33:07;;;;;;;;;18.00;15.67;;;;;;;;5015599;28;46490;-76
2021/07/17 04:35:34;;;;;;;;;20.00;15.67;;;;;;;;5001844;28;46110;-77
2021/07/17 04:37:59;;;;;;;;;15.75;13.75;;;;;;;;5005613;28;45412;-76
2021/07/17 04:40:24;;;;;;;;;19.33;15.67;;;;;;;;4985287;28;45608;-76
2021/07/17 04:42:50;;;;;;;;;22.67;14.33;;;;;;;;5001330;28;46105;-76
2021/07/17 04:45:15;;;;;;;;;20.33;15.33;;;;;;;;4994393;28;46192;-76
2021/07/17 04:47:41;;;;;;;;;14.50;13.50;;;;;;;;5007088;28;45531;-76
2021/07/17 04:50:06;;;;;;;;;16.00;13.00;;;;;;;;5009142;28;45317;-76
2021/07/17 04:52:32;;;;;;;;;17.50;13.75;;;;;;;;5006372;28;45657;-76
2021/07/17 04:54:57;;;;;;;;;20.25;15.75;;;;;;;;4988454;28;45561;-76
2021/07/17 04:57:22;;;;;;;;;20.33;16.33;;;;;;;;5011140;28;45461;-76
2021/07/17 04:59:50;;;;;;;;;17.50;15.50;;;;;;;;5010951;28;45503;-77
2021/07/17 05:02:15;;;;;;;;;16.25;15.25;;;;;;;;5009204;28;50738;-76
2021/07/17 05:04:40;;;;;;;;;19.67;16.00;;;;;;;;5006132;28;45575;-76
2021/07/17 05:07:05;;;;;;;;;14.67;14.33;;;;;;;;5009157;28;45362;-76
2021/07/17 05:09:30;;;;;;;;;19.33;15.33;;;;;;;;5007134;28;45562;-76
2021/07/17 05:11:56;;;;;;;;;16.75;15.25;;;;;;;;5010801;28;45465;-76
2021/07/17 05:14:21;;;;;;;;;17.25;16.50;;;;;;;;5011215;28;45538;-76
2021/07/17 05:16:46;;;;;;;;;21.50;16.75;;;;;;;;5006361;28;45503;-76
2021/07/17 05:19:12;;;;;;;;;21.67;15.33;;;;;;;;4996230;28;45543;-76
2021/07/17 05:21:37;;;;;;;;;19.00;15.67;;;;;;;;5010868;28;47393;-77
2021/07/17 05:24:03;;;;;;;;;20.75;17.25;;;;;;;;4994913;28;45405;-76
2021/07/17 05:26:28;;;;;;;;;18.00;14.00;;;;;;;;4999612;28;45706;-76
2021/07/17 05:28:53;;;;;;;;;18.00;15.00;;;;;;;;4992065;28;45466;-76
2021/07/17 05:31:19;;;;;;;;;15.67;14.33;;;;;;;;5011458;28;45577;-76
2021/07/17 05:33:44;;;;;;;;;15.50;14.50;;;;;;;;5009975;28;45476;-76
2021/07/17 05:36:10;;;;;;;;;19.00;15.25;;;;;;;;5015413;28;45629;-76
2021/07/17 05:38:35;;;;;;;;;15.00;14.33;;;;;;;;5009554;28;45545;-76
2021/07/17 05:41:00;;;;;;;;;23.00;19.00;;;;;;;;5000280;28;46388;-76
2021/07/17 05:43:26;;;;;;;;;15.67;15.00;;;;;;;;4992422;28;45396;-76
2021/07/17 05:45:53;;;;;;;;;16.75;16.50;;;;;;;;5006671;28;45501;-76
2021/07/17 05:48:18;;;;;;;;;21.50;16.75;;;;;;;;4995998;28;45403;-76
2021/07/17 05:50:44;;;;;;;;;16.00;15.75;;;;;;;;5010441;28;46369;-76
2021/07/17 05:53:09;;;;;;;;;20.50;14.25;;;;;;;;5009475;28;45454;-76
2021/07/17 05:55:34;;;;;;;;;20.67;14.67;;;;;;;;5000760;28;45482;-76
2021/07/17 05:58:00;;;;;;;;;20.67;14.00;;;;;;;;5011298;28;45410;-76
2021/07/17 06:00:25;;;;;;;;;22.25;18.25;;;;;;;;4997869;28;46796;-76
2021/07/17 06:02:50;;;;;;;;;23.33;17.00;;;;;;;;5010032;28;45612;-76
2021/07/17 06:05:15;;;;;;;;;22.67;15.67;;;;;;;;5001637;28;45411;-76
2021/07/17 06:07:41;;;;;;;;;18.50;17.00;;;;;;;;5010196;28;45324;-76
2021/07/17 06:10:06;;;;;;;;;17.67;14.33;;;;;;;;5006987;28;46599;-76
2021/07/17 06:12:32;;;;;;;;;22.25;16.25;;;;;;;;4996378;28;45436;-76
2021/07/17 06:14:58;;;;;;;;;21.00;17.25;;;;;;;;5004420;28;45524;-76
2021/07/17 06:17:23;;;;;;;;;19.00;15.75;;;;;;;;5011179;28;45341;-76
2021/07/17 06:19:48;;;;;;;;;16.00;15.25;;;;;;;;5009441;28;45420;-76
2021/07/17 06:22:14;;;;;;;;;16.50;15.75;;;;;;;;5009364;28;45452;-76
2021/07/17 06:24:39;;;;;;;;;21.00;17.33;;;;;;;;5005495;28;45451;-76
2021/07/17 06:27:05;;;;;;;;;17.75;16.00;;;;;;;;4981329;28;45656;-76
2021/07/17 06:29:30;;;;;;;;;17.50;17.50;;;;;;;;5002211;28;46178;-76
2021/07/17 06:31:56;;;;;;;;;20.00;14.75;;;;;;;;4991240;28;45404;-76
2021/07/17 06:34:21;;;;;;;;;15.67;15.33;;;;;;;;4990350;28;45460;-77
2021/07/17 06:36:46;;;;;;;;;19.00;16.25;;;;;;;;4991302;28;45582;-76
2021/07/17 06:39:12;;;;;;;;;18.25;14.50;;;;;;;;4994644;28;47531;-76
2021/07/17 06:41:37;;;;;;;;;23.67;18.67;;;;;;;;5000117;28;45376;-77
2021/07/17 06:44:03;;;;;;;;;21.75;14.50;;;;;;;;5009702;28;45363;-76
2021/07/17 06:46:28;;;;;;;;;13.00;11.75;;;;;;;;5008560;28;45466;-76
2021/07/17 06:48:53;;;;;;;;;20.33;17.33;;;;;;;;5008415;28;45755;-76
2021/07/17 06:51:18;;;;;;;;;20.00;17.67;;;;;;;;5013701;28;45494;-76
2021/07/17 06:53:44;;;;;;;;;23.33;15.33;;;;;;;;4990639;28;45526;-77
2021/07/17 06:56:09;;;;;;;;;19.00;16.33;;;;;;;;5006304;28;45274;-76
2021/07/17 06:58:34;;;;;;;;;22.67;16.33;;;;;;;;5008527;28;45515;-76
2021/07/17 07:01:00;;;;;;;;;28.33;19.33;;;;;;;;5012767;28;45516;-76
2021/07/17 07:03:25;;;;;;;;;19.25;18.50;;;;;;;;4992984;28;45409;-76
2021/07/17 07:05:50;;;;;;;;;26.67;23.00;;;;;;;;5010251;28;45542;-76
2021/07/17 07:08:23;;;;;;;;;21.50;19.00;;;;;;;;4993084;28;51605;-77
2021/07/17 07:10:48;;;;;;;;;16.00;15.00;;;;;;;;5009409;28;45308;-77
2021/07/17 07:13:15;;;;;;;;;20.00;19.25;;;;;;;;5015389;28;45420;-77
2021/07/17 07:15:53;;;;;;;;;17.00;15.25;;;;;;;;5008154;28;45525;-76
2021/07/17 07:18:18;;;;;;;;;19.50;19.00;;;;;;;;4974472;28;45766;-77
2021/07/17 07:20:43;;;;;;;;;17.33;17.33;;;;;;;;5012818;28;45826;-76
2021/07/17 07:23:09;;;;;;;;;21.00;17.67;;;;;;;;5008334;28;47408;-77
2021/07/17 07:25:34;;;;;;;;;22.50;16.25;;;;;;;;5013296;28;45460;-76
2021/07/17 07:27:59;;;;;;;;;21.00;16.00;;;;;;;;5011006;28;45417;-76
2021/07/17 07:30:25;;;;;;;;;16.67;15.00;;;;;;;;5004032;28;45618;-76
2021/07/17 07:32:50;;;;;;;;;24.75;17.25;;;;;;;;5002903;28;45528;-77
2021/07/17 07:35:16;;;;;;;;;21.25;18.50;;;;;;;;5007696;28;45731;-77
2021/07/17 07:37:41;;;;;;;;;19.00;15.25;;;;;;;;5007919;28;45713;-76
2021/07/17 07:40:07;;;;;;;;;18.33;16.00;;;;;;;;5011144;28;45405;-77
2021/07/17 07:42:32;;;;;;;;;20.50;14.25;;;;;;;;5004968;28;45368;-77
2021/07/17 07:44:57;;;;;;;;;24.67;16.67;;;;;;;;5009816;28;45413;-77
2021/07/17 07:47:23;;;;;;;;;23.00;19.00;;;;;;;;5014976;28;46275;-77
2021/07/17 07:49:48;;;;;;;;;21.75;18.75;;;;;;;;5008101;28;45340;-77
2021/07/17 07:52:14;;;;;;;;;22.50;18.00;;;;;;;;4986877;28;45893;-77
2021/07/17 07:54:40;;;;;;;;;23.00;18.67;;;;;;;;5008576;28;45454;-77
2021/07/17 07:57:05;;;;;;;;;21.75;19.75;;;;;;;;4989148;28;48030;-77
2021/07/17 07:59:31;;;;;;;;;24.50;18.50;;;;;;;;5009171;28;45460;-76
2021/07/17 08:01:56;;;;;;;;;22.00;18.25;;;;;;;;5007925;28;45347;-77
2021/07/17 08:04:21;;;;;;;;;22.33;18.33;;;;;;;;5011869;28;45459;-78
2021/07/17 08:06:46;;;;;;;;;22.33;20.67;;;;;;;;5000409;28;47163;-76
2021/07/17 08:09:12;;;;;;;;;20.75;19.00;;;;;;;;4996366;28;47455;-77
2021/07/17 08:11:37;;;;;;;;;19.75;18.75;;;;;;;;5014251;28;45476;-78
2021/07/17 08:14:02;;;;;;;;;28.33;21.67;;;;;;;;5008491;28;45448;-76
2021/07/17 08:16:27;;;;;;;;;28.00;21.67;;;;;;;;4990505;28;47451;-77
2021/07/17 08:18:53;;;;;;;;;23.00;17.67;;;;;;;;5006255;28;45498;-77
2021/07/17 08:21:18;;;;;;;;;22.75;20.00;;;;;;;;5010794;28;45844;-77
2021/07/17 08:23:45;;;;;;;;;24.25;21.75;;;;;;;;5005734;28;45766;-77
2021/07/17 08:26:10;;;;;;;;;24.75;21.00;;;;;;;;5011893;28;45484;-77
2021/07/17 08:28:36;;;;;;;;;24.75;20.75;;;;;;;;5011800;28;45353;-77
2021/07/17 08:31:01;;;;;;;;;20.25;18.75;;;;;;;;5006745;28;45451;-77
2021/07/17 08:33:34;;;;;;;;;23.33;21.00;;;;;;;;5015817;28;45506;-77
2021/07/17 08:36:08;;;;;;;;;25.50;20.25;;;;;;;;5002017;28;45817;-77
2021/07/17 08:38:33;;;;;;;;;27.75;22.75;;;;;;;;4990438;28;45759;-77
2021/07/17 08:40:59;;;;;;;;;23.00;21.00;;;;;;;;5009265;28;45451;-81
2021/07/17 08:43:25;;;;;;;;;25.75;19.50;;;;;;;;5000076;28;45530;-77
2021/07/17 08:45:50;;;;;;;;;22.75;20.75;;;;;;;;5011316;28;46093;-77
2021/07/17 08:48:16;;;;;;;;;26.75;19.00;;;;;;;;4993309;28;45424;-77
2021/07/17 08:50:42;;;;;;;;;23.25;21.75;;;;;;;;5004573;28;45547;-81
2021/07/17 08:53:07;;;;;;;;;21.25;19.25;;;;;;;;4986914;28;45576;-77
2021/07/17 08:55:33;;;;;;;;;24.25;21.25;;;;;;;;5006531;28;46219;-77
2021/07/17 08:57:58;;;;;;;;;24.00;23.25;;;;;;;;4997446;28;45586;-77
2021/07/17 09:00:27;;;;;;;;;18.75;18.00;;;;;;;;5010303;28;45430;-76
2021/07/17 09:02:54;;;;;;;;;25.50;20.00;;;;;;;;5003764;28;45689;-76
2021/07/17 09:05:21;;;;;;;;;23.25;18.75;;;;;;;;5017816;28;45432;-76
2021/07/17 09:07:47;;;;;;;;;23.00;20.00;;;;;;;;4984460;28;46014;-76
2021/07/17 09:10:35;;;;;;;;;26.75;19.25;;;;;;;;4996167;28;45421;-76
2021/07/17 09:13:08;;;;;;;;;26.50;21.00;;;;;;;;5015479;28;45456;-77
2021/07/17 09:15:33;;;;;;;;;25.50;21.50;;;;;;;;5008107;28;45349;-77
2021/07/17 09:17:58;;;;;;;;;26.75;22.50;;;;;;;;5006203;28;45325;-77
2021/07/17 09:20:23;;;;;;;;;28.00;20.67;;;;;;;;5003826;28;45362;-76
2021/07/17 09:22:55;;;;;;;;;24.25;19.25;;;;;;;;4999517;28;45457;-78
2021/07/17 09:25:20;;;;;;;;;27.25;20.25;;;;;;;;4995977;28;48325;-77
2021/07/17 09:27:46;;;;;;;;;22.33;20.33;;;;;;;;5013901;28;45641;-77
2021/07/17 09:30:26;;;;;;;;;23.50;20.00;;;;;;;;5013957;28;45635;-77
2021/07/17 09:32:57;;;;;;;;;24.50;22.00;;;;;;;;5004891;28;45508;-77
2021/07/17 09:35:23;;;;;;;;;25.00;22.75;;;;;;;;5016823;28;46433;-76
2021/07/17 09:37:52;;;;;;;;;23.75;21.50;;;;;;;;5009510;28;45412;-77
2021/07/17 09:40:18;;;;;;;;;25.00;20.50;;;;;;;;4999493;28;45776;-76
2021/07/17 09:42:44;;;;;;;;;25.00;22.50;;;;;;;;5012840;28;45438;-76
2021/07/17 09:45:09;;;;;;;;;24.00;21.25;;;;;;;;5014584;28;46666;-78
2021/07/17 09:47:34;;;;;;;;;20.00;19.25;;;;;;;;4997945;28;45912;-76
2021/07/17 09:50:26;;;;;;;;;21.33;21.00;;;;;;;;4989854;28;45789;-76
2021/07/17 09:52:51;;;;;;;;;21.25;21.00;;;;;;;;4992693;28;45551;-77
2021/07/17 09:55:18;;;;;;;;;26.33;19.67;;;;;;;;4987057;28;46572;-78
2021/07/17 09:57:44;;;;;;;;;28.00;22.00;;;;;;;;5013887;28;45472;-77
2021/07/17 10:00:10;;;;;;;;;25.00;22.00;;;;;;;;5004547;28;45629;-78
2021/07/17 10:02:36;;;;;;;;;24.00;20.75;;;;;;;;5011699;28;45598;-76
2021/07/17 10:05:08;;;;;;;;;24.25;21.50;;;;;;;;5002438;28;45515;-78
2021/07/17 10:07:33;;;;;;;;;22.50;19.25;;;;;;;;4991889;28;45912;-77
2021/07/17 10:09:59;;;;;;;;;26.00;20.75;;;;;;;;5014177;28;45422;-77
2021/07/17 10:12:33;;;;;;;;;19.25;18.75;;;;;;;;4996372;28;45614;-77
2021/07/17 10:14:58;;;;;;;;;21.50;19.00;;;;;;;;5012608;28;47176;-78
2021/07/17 10:17:32;;;;;;;;;19.00;17.67;;;;;;;;4999807;28;45685;-76
2021/07/17 10:19:57;;;;;;;;;19.75;17.75;;;;;;;;4995883;28;45516;-76
2021/07/17 10:22:24;;;;;;;;;24.25;20.75;;;;;;;;5012314;28;45502;-77
2021/07/17 10:24:50;;;;;;;;;23.00;17.50;;;;;;;;4986077;28;46260;-76
2021/07/17 10:27:15;;;;;;;;;20.25;20.25;;;;;;;;4994724;28;46997;-77
2021/07/17 10:29:41;;;;;;;;;26.50;21.50;;;;;;;;5002334;28;45646;-77
2021/07/17 10:32:06;;;;;;;;;26.50;22.50;;;;;;;;5013690;28;45694;-76
2021/07/17 10:34:32;;;;;;;;;26.50;22.50;;;;;;;;5005051;28;45438;-78
2021/07/17 10:37:13;;;;;;;;;25.25;22.25;;;;;;;;5010599;28;45516;-76
2021/07/17 10:39:42;;;;;;;;;25.25;21.25;;;;;;;;5010826;28;45781;-76
2021/07/17 10:42:18;;;;;;;;;26.75;22.00;;;;;;;;5014582;28;45917;-76
2021/07/17 10:44:46;;;;;;;;;20.50;17.25;;;;;;;;4984096;28;48014;-77
2021/07/17 10:47:12;;;;;;;;;23.75;19.75;;;;;;;;5012683;28;45905;-76
2021/07/17 10:49:39;;;;;;;;;20.50;19.50;;;;;;;;5011417;28;45667;-77
2021/07/17 10:52:05;;;;;;;;;21.75;20.50;;;;;;;;5013770;28;45420;-76
2021/07/17 10:54:30;;;;;;;;;23.25;19.25;;;;;;;;5014608;28;46141;-77
2021/07/17 10:56:56;;;;;;;;;20.75;18.50;;;;;;;;4990721;28;45555;-76
2021/07/17 10:59:21;;;;;;;;;20.75;19.25;;;;;;;;5012087;28;45546;-76
2021/07/17 11:01:56;;;;;;;;;23.00;17.67;;;;;;;;5011633;28;46015;-75
2021/07/17 11:04:39;;;;;;;;;24.00;20.25;;;;;;;;5018168;28;46123;-76
2021/07/17 11:07:26;;;;;;;;;22.25;18.50;;;;;;;;5013532;28;45909;-77
2021/07/17 11:09:51;;;;;;;;;22.50;21.50;;;;;;;;5000428;28;45616;-76
2021/07/17 11:12:17;;;;;;;;;25.25;18.25;;;;;;;;5012870;28;45518;-76
2021/07/17 11:14:43;;;;;;;;;22.25;19.00;;;;;;;;5012528;28;45680;-76
2021/07/17 11:17:08;;;;;;;;;22.25;19.25;;;;;;;;4996895;28;45471;-76
2021/07/17 11:19:33;;;;;;;;;24.25;21.25;;;;;;;;5015994;28;52407;-76
2021/07/17 11:22:09;;;;;;;;;24.67;20.67;;;;;;;;4998315;28;46077;-76
2021/07/17 11:24:34;;;;;;;;;23.75;20.00;;;;;;;;4999778;28;47939;-76
2021/07/17 11:27:16;;;;;;;;;22.50;19.50;;;;;;;;5010870;28;45412;-77
2021/07/17 11:29:46;;;;;;;;;24.25;20.50;;;;;;;;5006636;28;45348;-77
2021/07/17 11:32:15;;;;;;;;;24.50;21.25;;;;;;;;5008656;28;45428;-79
2021/07/17 11:34:50;;;;;;;;;28.75;22.00;;;;;;;;4985139;28;48517;-76
2021/07/17 11:37:18;;;;;;;;;25.75;23.75;;;;;;;;5008611;28;45793;-76
2021/07/17 11:39:48;;;;;;;;;26.75;22.50;;;;;;;;5011915;28;45576;-76
2021/07/17 11:42:14;;;;;;;;;44.25;35.25;;;;;;;;5001436;28;45665;-76
2021/07/17 11:44:41;;;;;;;;;68.00;52.50;;;;;;;;4996557;28;46329;-76
2021/07/17 11:47:08;;;;;;;;;75.00;58.75;;;;;;;;5015336;28;45732;-76
2021/07/17 11:49:35;;;;;;;;;53.25;42.50;;;;;;;;5013309;28;45419;-76
2021/07/17 11:52:02;;;;;;;;;50.25;38.50;;;;;;;;5009100;28;45510;-76
2021/07/17 11:54:32;;;;;;;;;89.25;77.50;;;;;;;;5008954;28;48519;-76
2021/07/17 11:57:20;;;;;;;;;51.00;40.75;;;;;;;;5004758;28;45678;-76
2021/07/17 11:59:56;;;;;;;;;38.75;32.75;;;;;;;;4998294;28;45772;-76
2021/07/17 12:02:22;;;;;;;;;31.25;26.25;;;;;;;;4995995;28;45607;-76
2021/07/17 12:04:49;;;;;;;;;40.25;32.25;;;;;;;;5013021;28;46626;-76
2021/07/17 12:07:16;;;;;;;;;33.50;23.75;;;;;;;;5014160;28;45764;-76
2021/07/17 12:09:45;;;;;;;;;29.25;23.75;;;;;;;;5014262;28;45507;-76
2021/07/17 12:12:30;;;;;;;;;23.75;22.00;;;;;;;;5013163;28;45549;-76
2021/07/17 12:14:59;;;;;;;;;27.75;21.75;;;;;;;;5009948;28;46764;-77
2021/07/17 12:17:25;;;;;;;;;23.75;20.25;;;;;;;;4995811;28;45697;-80
2021/07/17 12:20:02;;;;;;;;;28.25;21.25;;;;;;;;5010868;28;45431;-76
2021/07/17 12:22:28;;;;;;;;;25.50;20.00;;;;;;;;5012606;28;45633;-76
2021/07/17 12:25:01;;;;;;;;;25.00;20.33;;;;;;;;5011335;28;45381;-76
2021/07/17 12:27:26;;;;;;;;;23.25;20.50;;;;;;;;4992390;28;45565;-76
2021/07/17 12:29:51;;;;;;;;;25.67;22.00;;;;;;;;4992719;28;45519;-76
2021/07/17 12:32:19;;;;;;;;;21.33;19.00;;;;;;;;5011855;28;45551;-77
2021/07/17 12:34:53;;;;;;;;;21.50;20.50;;;;;;;;5008424;28;54865;-77
2021/07/17 12:37:28;;;;;;;;;26.25;21.75;;;;;;;;5006268;28;45656;-77
2021/07/17 12:40:10;;;;;;;;;21.25;19.25;;;;;;;;4993774;28;45504;-76
2021/07/17 12:42:46;;;;;;;;;19.75;17.00;;;;;;;;5010087;28;45515;-76
2021/07/17 12:45:16;;;;;;;;;23.75;21.50;;;;;;;;5010225;28;46131;-77
2021/07/17 12:47:49;;;;;;;;;21.25;19.75;;;;;;;;5012832;28;45499;-77
2021/07/17 12:50:28;;;;;;;;;;;;;;;;;;;;;
2021/07/17 12:53:13;;;;;;;;;23.25;23.00;;;;;;;;5012980;28;68876;-77
2021/07/17 12:55:55;;;;;;;;;;;;;;;;;;;;;
2021/07/17 12:58:21;;;;;;;;;21.75;21.50;;;;;;;;5015237;28;72922;-77
2021/07/17 13:00:46;;;;;;;;;22.25;20.75;;;;;;;;5019120;28;45428;-75
2021/07/17 13:03:13;;;;;;;;;25.33;20.00;;;;;;;;4993231;28;45772;-82
2021/07/17 13:05:47;;;;;;;;;27.75;22.50;;;;;;;;4978133;28;49305;-77
2021/07/17 13:08:22;;;;;;;;;23.75;18.50;;;;;;;;5014216;28;45616;-78
2021/07/17 13:10:48;;;;;;;;;23.75;20.50;;;;;;;;4996922;28;45327;-76
2021/07/17 13:13:13;;;;;;;;;19.25;19.25;;;;;;;;4993899;28;45587;-76
2021/07/17 13:15:39;;;;;;;;;25.00;22.33;;;;;;;;5010984;28;45451;-77
2021/07/17 13:18:17;;;;;;;;;22.50;19.25;;;;;;;;5002617;28;45792;-76
2021/07/17 13:20:43;;;;;;;;;21.00;19.75;;;;;;;;5016320;28;45662;-77
2021/07/17 13:23:08;;;;;;;;;25.00;22.00;;;;;;;;5017444;28;45658;-77
2021/07/17 13:25:37;;;;;;;;;22.67;22.33;;;;;;;;5011449;28;46603;-76
2021/07/17 13:28:08;;;;;;;;;25.50;20.50;;;;;;;;5005927;28;45727;-76
2021/07/17 13:30:33;;;;;;;;;28.75;24.50;;;;;;;;5008210;28;45438;-75
2021/07/17 13:33:06;;;;;;;;;28.25;24.75;;;;;;;;4998467;28;45589;-75
2021/07/17 13:35:34;;;;;;;;;25.00;20.25;;;;;;;;5007141;28;47226;-75
2021/07/17 13:38:12;;;;;;;;;23.50;20.50;;;;;;;;5014451;28;45389;-75
2021/07/17 13:40:39;;;;;;;;;25.25;21.75;;;;;;;;5016069;28;45918;-75
2021/07/17 13:43:09;;;;;;;;;23.50;20.00;;;;;;;;5017516;28;45396;-75
2021/07/17 13:45:36;;;;;;;;;24.50;23.50;;;;;;;;4993682;28;47551;-76
2021/07/17 13:48:01;;;;;;;;;24.00;22.50;;;;;;;;5017998;28;45808;-75
2021/07/17 13:50:28;;;;;;;;;22.25;21.25;;;;;;;;4996940;28;45472;-75
2021/07/17 13:52:56;;;;;;;;;25.00;21.25;;;;;;;;5012974;28;45468;-75
2021/07/17 13:55:32;;;;;;;;;23.25;20.00;;;;;;;;4994171;28;47557;-75
2021/07/17 13:58:02;;;;;;;;;24.50;22.00;;;;;;;;4990232;28;51079;-75
2021/07/17 14:00:37;;;;;;;;;24.25;20.75;;;;;;;;5010573;28;45415;-75
2021/07/17 14:03:02;;;;;;;;;24.75;21.75;;;;;;;;4985860;28;45909;-75
2021/07/17 14:05:28;;;;;;;;;26.25;25.25;;;;;;;;5005144;28;46120;-77
2021/07/17 14:07:53;;;;;;;;;26.00;24.00;;;;;;;;4993542;28;46415;-76
2021/07/17 14:10:18;;;;;;;;;24.67;21.67;;;;;;;;4996431;28;45847;-76
2021/07/17 14:12:43;;;;;;;;;20.67;19.00;;;;;;;;5006831;28;45669;-79
2021/07/17 14:15:09;;;;;;;;;26.75;23.25;;;;;;;;4996440;28;46815;-75
2021/07/17 14:17:34;;;;;;;;;23.50;19.50;;;;;;;;4992212;28;46737;-76